createdAt,value
2018-11-23T00:00:18.886Z,84.12
2018-11-23T00:01:11.475Z,84.59
2018-11-23T00:02:05.054Z,84.98
2018-11-23T00:02:57.393Z,86.78
2018-11-23T00:03:50.158Z,86.3
2018-11-23T00:04:42.074Z,86.21
2018-11-23T00:05:33.954Z,87.82
2018-11-23T00:06:27.215Z,86.55
2018-11-23T00:07:20.268Z,87.87
2018-11-23T00:08:13.450Z,88.25
2018-11-23T00:09:05.409Z,88.44
2018-11-23T00:09:57.837Z,88.06
2018-11-23T00:10:50.870Z,89.29
2018-11-23T00:11:42.774Z,89.11
2018-11-23T00:12:34.958Z,90.05
2018-11-23T00:13:26.975Z,90.62
2018-11-23T00:14:19.035Z,91.19
2018-11-23T00:15:11.495Z,90.24
2018-11-23T00:16:04.025Z,90.24
2018-11-23T00:16:56.382Z,89.77
2018-11-23T00:17:48.536Z,89.86
2018-11-23T00:18:38.879Z,89.11
2018-11-23T00:19:18.978Z,88.92
2018-11-23T00:19:59.499Z,89.11
2018-11-23T00:20:39.926Z,89.58
2018-11-23T00:21:20.244Z,89.11
2018-11-23T00:22:00.624Z,88.06
2018-11-23T00:22:40.999Z,88.06
2018-11-23T00:23:21.403Z,87.77
2018-11-23T00:24:01.801Z,87.97
2018-11-23T00:24:42.195Z,87.3
2018-11-23T00:25:22.586Z,87.97
2018-11-23T00:26:02.968Z,87.77
2018-11-23T00:26:43.345Z,89.29
2018-11-23T00:27:23.699Z,89.43
2018-11-23T00:28:04.112Z,87.59
2018-11-23T00:28:44.521Z,86.87
2018-11-23T00:29:24.901Z,86.83
2018-11-23T00:30:05.589Z,86.07
2018-11-23T00:30:46.062Z,87.3
2018-11-23T00:31:26.422Z,87.77
2018-11-23T00:32:06.887Z,87.12
2018-11-23T00:32:47.292Z,87.21
2018-11-23T00:33:27.620Z,88.73
2018-11-23T00:34:07.969Z,89.11
2018-11-23T00:34:48.461Z,88.35
2018-11-23T00:35:28.828Z,88.16
2018-11-23T00:36:09.211Z,88.92
2018-11-23T00:36:49.561Z,88.25
2018-11-23T00:37:29.994Z,88.92
2018-11-23T00:38:10.408Z,89.39
2018-11-23T00:38:50.846Z,89.39
2018-11-23T00:39:31.188Z,89.01
2018-11-23T00:40:11.567Z,87.77
2018-11-23T00:40:52.025Z,88.16
2018-11-23T00:41:32.440Z,87.77
2018-11-23T00:42:12.819Z,87.77
2018-11-23T00:42:53.135Z,88.06
2018-11-23T00:43:33.582Z,89.39
2018-11-23T00:44:13.985Z,89.39
2018-11-23T00:44:54.389Z,87.4
2018-11-23T00:45:35.639Z,88.54
2018-11-23T00:46:15.165Z,89.53
2018-11-23T00:46:55.550Z,88.39
2018-11-23T00:47:35.931Z,89.06
2018-11-23T00:48:16.254Z,87.25
2018-11-23T00:48:56.673Z,86.02
2018-11-23T00:49:37.038Z,86.02
2018-11-23T00:50:17.473Z,86.35
2018-11-23T00:50:57.841Z,85.21
2018-11-23T00:51:38.280Z,86.16
2018-11-23T00:52:18.636Z,85.21
2018-11-23T00:52:58.979Z,84.26
2018-11-23T00:53:39.433Z,83.88
2018-11-23T00:54:19.819Z,83.31
2018-11-23T00:55:00.212Z,81.79
2018-11-23T00:55:40.625Z,80.75
2018-11-23T00:56:21.010Z,81.04
2018-11-23T00:57:01.478Z,80.94
2018-11-23T00:57:41.906Z,81.6
2018-11-23T00:58:22.268Z,80.27
2018-11-23T00:59:02.742Z,81.04
2018-11-23T00:59:43.124Z,81.32
2018-11-23T01:00:23.525Z,81.98
2018-11-23T01:01:03.939Z,82.13
2018-11-23T01:01:44.309Z,82.04
2018-11-23T01:02:24.708Z,82.51
2018-11-23T01:03:05.132Z,83.55
2018-11-23T01:03:45.459Z,84.55
2018-11-23T01:04:25.888Z,83.03
2018-11-23T01:05:06.273Z,81.88
2018-11-23T01:05:46.701Z,82.08
2018-11-23T01:06:27.042Z,81.51
2018-11-23T01:07:07.423Z,80.56
2018-11-23T01:07:47.812Z,80.99
2018-11-23T01:08:28.165Z,82.36
2018-11-23T01:09:08.603Z,82.93
2018-11-23T01:09:48.931Z,82.6
2018-11-23T01:10:29.324Z,82.74
2018-11-23T01:11:09.769Z,82.55
2018-11-23T01:11:50.127Z,82.7
2018-11-23T01:12:30.538Z,83.12
2018-11-23T01:13:10.983Z,81.94
2018-11-23T01:13:51.368Z,82.84
2018-11-23T01:14:31.777Z,83.97
2018-11-23T01:15:12.127Z,84.07
2018-11-23T01:15:52.544Z,83.59
2018-11-23T01:16:32.928Z,83.4
2018-11-23T01:17:13.366Z,82.74
2018-11-23T01:17:53.717Z,82.55
2018-11-23T01:18:34.105Z,81.13
2018-11-23T01:19:14.455Z,80.46
2018-11-23T01:19:54.839Z,80.08
2018-11-23T01:20:35.269Z,80.46
2018-11-23T01:21:15.659Z,80.04
2018-11-23T01:21:56.054Z,82.6
2018-11-23T01:22:36.455Z,83.69
2018-11-23T01:23:16.858Z,85.3
2018-11-23T01:23:57.238Z,83.97
2018-11-23T01:24:37.629Z,83.12
2018-11-23T01:25:17.936Z,82.08
2018-11-23T01:25:58.413Z,81.51
2018-11-23T01:26:38.747Z,81.98
2018-11-23T01:27:19.169Z,82.36
2018-11-23T01:27:59.541Z,83.17
2018-11-23T01:28:39.988Z,83.59
2018-11-23T01:29:20.293Z,83.03
2018-11-23T01:30:00.747Z,82.32
2018-11-23T01:30:41.128Z,83.08
2018-11-23T01:31:21.514Z,83.36
2018-11-23T01:32:01.917Z,85.45
2018-11-23T01:32:42.298Z,83.84
2018-11-23T01:33:22.678Z,82.7
2018-11-23T01:34:03.106Z,82.13
2018-11-23T01:34:43.478Z,83.55
2018-11-23T01:35:23.913Z,82.32
2018-11-23T01:36:04.228Z,82.04
2018-11-23T01:36:44.640Z,82.04
2018-11-23T01:37:24.985Z,81.27
2018-11-23T01:38:05.434Z,83.36
2018-11-23T01:38:45.814Z,83.94
2018-11-23T01:39:26.170Z,84.78
2018-11-23T01:40:06.638Z,84.22
2018-11-23T01:40:46.981Z,85.59
2018-11-23T01:41:27.353Z,84.74
2018-11-23T01:42:07.795Z,83.59
2018-11-23T01:42:48.362Z,83.03
2018-11-23T01:43:28.668Z,83.59
2018-11-23T01:44:09.080Z,82.74
2018-11-23T01:44:49.432Z,81.88
2018-11-23T01:45:29.775Z,80.08
2018-11-23T01:46:10.188Z,79.52
2018-11-23T01:46:50.648Z,79.23
2018-11-23T01:47:31.111Z,79.61
2018-11-23T01:48:11.479Z,80.08
2018-11-23T01:48:51.816Z,79.9
2018-11-23T01:49:32.178Z,80.18
2018-11-23T01:50:12.644Z,80.18
2018-11-23T01:50:52.933Z,79.42
2018-11-23T01:51:33.416Z,78.75
2018-11-23T01:52:13.711Z,78.38
2018-11-23T01:52:54.149Z,78.28
2018-11-23T01:53:34.557Z,78.47
2018-11-23T01:54:14.887Z,78.91
2018-11-23T01:54:55.364Z,79.57
2018-11-23T01:55:35.715Z,80.9
2018-11-23T01:56:16.111Z,81.37
2018-11-23T01:56:56.591Z,80.9
2018-11-23T01:57:36.915Z,80.9
2018-11-23T01:58:17.318Z,82.46
2018-11-23T01:58:57.737Z,82.17
2018-11-23T01:59:38.287Z,81.98
2018-11-23T02:00:18.636Z,81.41
2018-11-23T02:00:59.082Z,81.51
2018-11-23T02:01:39.456Z,81.04
2018-11-23T02:02:19.814Z,79.85
2018-11-23T02:03:00.233Z,79.47
2018-11-23T02:03:40.611Z,79.66
2018-11-23T02:04:20.987Z,80.14
2018-11-23T02:05:01.413Z,81.94
2018-11-23T02:05:41.895Z,83.65
2018-11-23T02:06:22.249Z,84.69
2018-11-23T02:07:02.662Z,83.84
2018-11-23T02:07:43.124Z,83.46
2018-11-23T02:08:23.527Z,81.94
2018-11-23T02:09:03.985Z,82.04
2018-11-23T02:09:44.370Z,82.79
2018-11-23T02:10:24.702Z,83.46
2018-11-23T02:11:05.138Z,83.74
2018-11-23T02:11:45.495Z,84.17
2018-11-23T02:12:25.857Z,84.17
2018-11-23T02:13:06.269Z,84.45
2018-11-23T02:13:46.614Z,83.31
2018-11-23T02:14:26.981Z,81.98
2018-11-23T02:15:07.368Z,80.27
2018-11-23T02:15:47.793Z,79.61
2018-11-23T02:16:28.162Z,80.37
2018-11-23T02:17:08.582Z,80.37
2018-11-23T02:17:48.955Z,79.33
2018-11-23T02:18:29.435Z,78.75
2018-11-23T02:19:09.808Z,78
2018-11-23T02:19:50.240Z,78.38
2018-11-23T02:20:30.601Z,79.28
2018-11-23T02:21:10.950Z,80.71
2018-11-23T02:21:51.405Z,82.36
2018-11-23T02:22:31.778Z,83.03
2018-11-23T02:23:12.135Z,83.12
2018-11-23T02:23:52.564Z,83.5
2018-11-23T02:24:32.993Z,81.23
2018-11-23T02:25:13.418Z,79.9
2018-11-23T02:25:53.748Z,79.8
2018-11-23T02:26:34.234Z,81.04
2018-11-23T02:27:14.539Z,81.98
2018-11-23T02:27:55.027Z,82.08
2018-11-23T02:28:35.419Z,82.27
2018-11-23T02:29:15.761Z,81.04
2018-11-23T02:29:56.105Z,80.94
2018-11-23T02:30:36.521Z,80.08
2018-11-23T02:31:16.943Z,80.56
2018-11-23T02:31:57.344Z,80.84
2018-11-23T02:32:37.720Z,81.17
2018-11-23T02:33:18.109Z,80.94
2018-11-23T02:33:58.597Z,80.51
2018-11-23T02:34:38.936Z,80.08
2018-11-23T02:35:19.470Z,80.22
2018-11-23T02:37:08.638Z,75.76
2018-11-23T02:37:48.808Z,75.53
2018-11-23T02:38:29.257Z,75.24
2018-11-23T02:39:09.649Z,77.62
2018-11-23T02:39:50.088Z,79.23
2018-11-23T02:40:30.464Z,80.08
2018-11-23T02:41:10.879Z,80.65
2018-11-23T02:41:51.351Z,81.51
2018-11-23T02:42:31.843Z,80.65
2018-11-23T02:43:12.219Z,80.84
2018-11-23T02:43:52.567Z,79.42
2018-11-23T02:44:33.150Z,78.19
2018-11-23T02:45:13.394Z,77.81
2018-11-23T02:45:53.800Z,78.81
2018-11-23T02:46:34.307Z,80.52
2018-11-23T02:47:14.589Z,80.8
2018-11-23T02:47:55.009Z,81.09
2018-11-23T02:48:35.485Z,81.18
2018-11-23T02:49:15.842Z,82.98
2018-11-23T02:49:56.269Z,83.59
2018-11-23T02:50:36.698Z,83.4
2018-11-23T02:51:18.041Z,82.08
2018-11-23T02:51:58.455Z,80.46
2018-11-23T02:52:38.814Z,80.94
2018-11-23T02:53:19.220Z,80.08
2018-11-23T02:53:59.645Z,81.51
2018-11-23T02:54:39.983Z,81.13
2018-11-23T02:55:20.396Z,80.08
2018-11-23T02:56:00.847Z,79.19
2018-11-23T02:56:41.233Z,79.57
2018-11-23T02:57:21.781Z,79.76
2018-11-23T02:58:02.170Z,80.14
2018-11-23T02:58:42.580Z,80.43
2018-11-23T02:59:23.992Z,81.18
2018-11-23T03:00:03.518Z,82.89
2018-11-23T03:00:43.921Z,83.46
2018-11-23T03:01:24.521Z,83.84
2018-11-23T03:02:04.756Z,83.08
2018-11-23T03:02:45.180Z,83.65
2018-11-23T03:03:26.155Z,83.65
2018-11-23T03:04:07.087Z,82.89
2018-11-23T03:04:47.426Z,82.32
2018-11-23T03:05:27.874Z,81.94
2018-11-23T03:06:08.212Z,81.75
2018-11-23T03:06:48.590Z,81.27
2018-11-23T03:07:29.002Z,81.27
2018-11-23T03:08:09.406Z,82.79
2018-11-23T03:08:49.804Z,84.08
2018-11-23T03:09:30.152Z,83.84
2018-11-23T03:10:10.555Z,83.65
2018-11-23T03:10:50.948Z,84.17
2018-11-23T03:11:31.392Z,86.02
2018-11-23T03:12:11.950Z,85.64
2018-11-23T03:12:52.327Z,83.36
2018-11-23T03:13:33.986Z,81.94
2018-11-23T03:15:53.351Z,82.32
2018-11-23T03:16:45.942Z,83.42
2018-11-23T03:17:38.204Z,84.65
2018-11-23T03:18:30.720Z,83.8
2018-11-23T03:19:23.250Z,85.64
2018-11-23T03:20:15.797Z,86.68
2018-11-23T03:21:08.144Z,86.3
2018-11-23T03:22:00.250Z,84.88
2018-11-23T03:22:53.076Z,82.51
2018-11-23T03:23:45.359Z,81.37
2018-11-23T03:24:37.807Z,80.94
2018-11-23T03:25:30.786Z,81.51
2018-11-23T03:26:23.401Z,81.79
2018-11-23T03:27:16.315Z,81.79
2018-11-23T03:28:08.885Z,81.98
2018-11-23T03:29:01.381Z,80.79
2018-11-23T03:29:53.774Z,80.13
2018-11-23T03:30:45.937Z,79.36
2018-11-23T03:31:38.208Z,79.08
2018-11-23T03:32:30.725Z,78.99
2018-11-23T03:33:23.367Z,78.99
2018-11-23T03:34:15.531Z,78.61
2018-11-23T03:35:07.877Z,79.17
2018-11-23T03:36:00.565Z,77.94
2018-11-23T03:36:52.740Z,77.84
2018-11-23T03:37:44.855Z,76.04
2018-11-23T03:38:36.714Z,75.76
2018-11-23T03:39:33.982Z,75.28
2018-11-23T03:40:21.288Z,76.01
2018-11-23T03:41:13.110Z,76.29
2018-11-23T03:42:05.771Z,76.86
2018-11-23T03:42:57.636Z,78
2018-11-23T03:43:49.914Z,78.75
2018-11-23T03:44:42.213Z,79.23
2018-11-23T03:45:34.811Z,78.95
2018-11-23T03:46:26.744Z,79.42
2018-11-23T03:47:19.203Z,80.56
2018-11-23T03:48:11.465Z,80.84
2018-11-23T03:49:03.610Z,80.08
2018-11-23T03:49:56.112Z,79.9
2018-11-23T03:50:48.097Z,80.08
2018-11-23T03:51:40.337Z,80.56
2018-11-23T03:52:32.262Z,81.04
2018-11-23T03:53:25.573Z,79.99
2018-11-23T03:54:17.781Z,80.75
2018-11-23T03:55:10.147Z,83.03
2018-11-23T03:56:02.249Z,83.03
2018-11-23T03:56:54.375Z,82.55
2018-11-23T03:57:46.982Z,80.98
2018-11-23T03:58:39.202Z,80.94
2018-11-23T03:59:31.343Z,79.08
2018-11-23T04:00:23.587Z,78.56
2018-11-23T04:01:15.410Z,78.56
2018-11-23T04:02:07.691Z,80.27
2018-11-23T04:03:00.445Z,81.32
2018-11-23T04:03:52.353Z,81.32
2018-11-23T04:04:44.744Z,80.41
2018-11-23T04:05:37.281Z,80.51
2018-11-23T04:06:29.291Z,79.08
2018-11-23T04:07:21.311Z,78.8
2018-11-23T04:08:13.874Z,77.94
2018-11-23T04:09:05.811Z,77.56
2018-11-23T04:09:58.433Z,78.13
2018-11-23T04:10:50.696Z,78.13
2018-11-23T04:11:43.053Z,78.7
2018-11-23T04:12:36.536Z,79.14
2018-11-23T04:13:28.917Z,79.9
2018-11-23T04:14:21.222Z,80.79
2018-11-23T04:15:14.073Z,81.74
2018-11-23T04:16:06.203Z,80.6
2018-11-23T04:16:58.792Z,79.27
2018-11-23T04:17:50.868Z,79.17
2018-11-23T04:18:43.225Z,78.32
2018-11-23T04:19:35.808Z,78.99
2018-11-23T04:20:27.918Z,78.51
2018-11-23T04:21:21.301Z,78.23
2018-11-23T04:22:13.903Z,77.81
2018-11-23T04:23:06.231Z,78.03
2018-11-23T04:23:58.273Z,78.09
2018-11-23T04:24:50.485Z,79.14
2018-11-23T04:25:42.662Z,79.14
2018-11-23T04:26:35.192Z,78.95
2018-11-23T04:27:27.835Z,80.08
2018-11-23T05:06:56.958Z,86.35
2018-11-23T05:07:37.248Z,86.16
2018-11-23T05:08:17.637Z,84.83
2018-11-23T05:08:58.022Z,84.83
2018-11-23T05:09:38.461Z,84.07
2018-11-23T05:10:18.857Z,83.88
2018-11-23T05:10:59.229Z,83.69
2018-11-23T05:11:39.612Z,83.83
2018-11-23T05:12:20.038Z,83.59
2018-11-23T05:14:24.504Z,81.45
2018-11-23T05:15:18.356Z,81.65
2018-11-23T05:16:10.629Z,82.03
2018-11-23T05:17:03.376Z,83.45
2018-11-23T05:17:55.526Z,83.07
2018-11-23T05:18:48.301Z,83.16
2018-11-23T05:19:40.753Z,83.92
2018-11-23T05:20:32.647Z,83.64
2018-11-23T05:21:25.284Z,81.93
2018-11-23T05:22:17.787Z,81.74
2018-11-23T05:23:10.432Z,80.88
2018-11-23T05:24:02.491Z,82.03
2018-11-23T05:24:54.684Z,82.12
2018-11-23T05:25:47.217Z,82.88
2018-11-23T05:26:39.787Z,82.03
2018-11-23T05:27:31.785Z,81.26
2018-11-23T05:28:23.787Z,80.79
2018-11-23T05:29:16.083Z,80.98
2018-11-23T05:30:08.361Z,81.36
2018-11-23T05:31:00.963Z,81.26
2018-11-23T05:31:53.310Z,82.31
2018-11-23T05:32:45.743Z,83.07
2018-11-23T05:33:39.411Z,81.4
2018-11-23T05:34:31.798Z,80.83
2018-11-23T05:35:23.719Z,80.83
2018-11-23T05:36:16.326Z,80.26
2018-11-23T05:37:08.411Z,79.12
2018-11-23T05:38:00.834Z,77.41
2018-11-23T05:38:52.797Z,77.89
2018-11-23T05:39:45.274Z,78.83
2018-11-23T05:40:37.857Z,78.13
2018-11-23T05:41:30.461Z,80.13
2018-11-23T05:42:22.670Z,77.84
2018-11-23T05:43:14.722Z,79.65
2018-11-23T05:44:07.257Z,80.6
2018-11-23T05:45:00.269Z,80.69
2018-11-23T05:45:52.387Z,81.07
2018-11-23T05:46:44.490Z,81.26
2018-11-23T05:47:37.359Z,79.17
2018-11-23T05:48:30.299Z,78.03
2018-11-23T05:49:22.975Z,77.84
2018-11-23T05:50:15.317Z,77.18
2018-11-23T05:51:07.851Z,79.08
2018-11-23T05:52:01.878Z,78.89
2018-11-23T05:52:55.201Z,79.33
2018-11-23T05:53:47.759Z,80.94
2018-11-23T05:54:40.209Z,81.13
2018-11-23T05:55:33.161Z,81.88
2018-11-23T05:56:25.264Z,81.98
2018-11-23T05:57:19.248Z,81.88
2018-11-23T05:58:11.227Z,81.88
2018-11-23T05:59:03.324Z,81.79
2018-11-23T05:59:56.165Z,82.17
2018-11-23T06:00:48.782Z,83.59
2018-11-23T06:01:41.521Z,85.17
2018-11-23T06:02:34.479Z,83.84
2018-11-23T06:03:26.808Z,83.94
2018-11-23T06:04:18.877Z,84.59
2018-11-23T06:05:11.245Z,84.88
2018-11-23T06:06:03.584Z,86.16
2018-11-23T06:06:55.950Z,85.02
2018-11-23T06:07:48.445Z,86.07
2018-11-23T06:08:40.719Z,85.59
2018-11-23T06:09:33.316Z,84.83
2018-11-23T06:10:25.788Z,83.78
2018-11-23T06:11:18.492Z,83.22
2018-11-23T06:12:10.785Z,82.93
2018-11-23T06:13:04.643Z,83.03
2018-11-23T06:13:56.866Z,81.51
2018-11-23T06:14:48.889Z,80.79
2018-11-23T06:15:44.444Z,81.17
2018-11-23T06:16:36.447Z,79.65
2018-11-23T06:17:30.794Z,79.08
2018-11-23T06:18:25.130Z,78.95
2018-11-23T06:19:17.326Z,79.04
2018-11-23T06:20:09.968Z,80.37
2018-11-23T06:21:02.209Z,80.27
2018-11-23T06:21:55.781Z,81.27
2018-11-23T06:22:48.249Z,82.13
2018-11-23T06:23:41.236Z,82.42
2018-11-23T06:24:37.163Z,82.79
2018-11-23T06:26:41.270Z,84.88
2018-11-23T06:27:21.692Z,86.97
2018-11-23T06:28:02.102Z,85.93
2018-11-23T06:28:42.521Z,85.49
2018-11-23T06:29:22.926Z,83.65
2018-11-23T06:30:03.323Z,84.17
2018-11-23T06:30:43.730Z,83.5
2018-11-23T06:31:24.124Z,83.03
2018-11-23T06:32:04.509Z,83.03
2018-11-23T06:32:44.884Z,82.84
2018-11-23T06:33:25.291Z,83.31
2018-11-23T06:34:05.712Z,83.12
2018-11-23T06:34:46.106Z,82.36
2018-11-23T06:35:26.489Z,81.41
2018-11-23T06:36:06.869Z,81.88
2018-11-23T06:36:47.267Z,83.22
2018-11-23T06:37:27.686Z,83.59
2018-11-23T06:38:08.089Z,83.59
2018-11-23T06:38:48.503Z,83.31
2018-11-23T06:39:28.924Z,81.79
2018-11-23T06:40:09.276Z,81.13
2018-11-23T06:40:49.709Z,80.75
2018-11-23T06:41:30.089Z,81.79
2018-11-23T06:42:10.474Z,82.93
2018-11-23T06:42:50.863Z,81.84
2018-11-23T06:43:31.243Z,82.03
2018-11-23T06:45:59.707Z,80.03
2018-11-23T06:47:56.124Z,78.8
2018-11-23T06:48:37.132Z,77.84
2018-11-23T06:49:17.128Z,78.56
2018-11-23T06:49:57.630Z,78.75
2018-11-23T06:50:39.151Z,79.14
2018-11-23T06:51:19.633Z,80.46
2018-11-23T06:52:00.635Z,81.6
2018-11-23T06:52:40.481Z,82.17
2018-11-23T06:53:21.617Z,80.65
2018-11-23T06:54:02.157Z,81.32
2018-11-23T06:54:43.620Z,81.79
2018-11-23T06:55:24.147Z,82.08
2018-11-23T06:56:04.184Z,80.27
2018-11-23T06:56:45.212Z,79.52
2018-11-23T06:57:26.668Z,79.99
2018-11-23T06:58:07.653Z,82.17
2018-11-23T06:58:47.606Z,82.08
2018-11-23T06:59:28.063Z,80.56
2018-11-23T07:00:10.815Z,80.37
2018-11-23T07:00:51.518Z,79.33
2018-11-23T07:01:32.001Z,79.52
2018-11-23T07:02:12.801Z,80.27
2018-11-23T07:02:59.044Z,81.04
2018-11-23T07:03:33.751Z,80.84
2018-11-23T07:04:15.126Z,81.32
2018-11-23T07:04:54.994Z,82.27
2018-11-23T07:05:35.651Z,81.88
2018-11-23T07:06:16.091Z,80.75
2018-11-23T07:06:57.133Z,79.71
2018-11-23T07:07:37.319Z,79.8
2018-11-23T07:08:18.076Z,79.61
2018-11-23T07:08:59.233Z,79.52
2018-11-23T07:09:40.877Z,80.75
2018-11-23T07:10:21.189Z,82.55
2018-11-23T07:11:01.723Z,83.03
2018-11-23T07:11:42.195Z,82.65
2018-11-23T07:12:23.622Z,82.74
2018-11-23T07:13:04.679Z,83.69
2018-11-23T07:13:44.525Z,82.36
2018-11-23T07:15:39.586Z,80.94
2018-11-23T07:16:33.236Z,80.56
2018-11-23T07:17:29.898Z,80.99
2018-11-23T07:18:42.939Z,81.09
2018-11-23T07:19:36.175Z,81.85
2018-11-23T07:20:29.726Z,83.17
2018-11-23T07:21:22.578Z,84.12
2018-11-23T07:22:16.412Z,84.59
2018-11-23T07:23:10.971Z,83.78
2018-11-23T07:25:47.633Z,82.74
2018-11-23T07:26:42.129Z,82.36
2018-11-23T07:27:35.939Z,82.84
2018-11-23T07:28:34.147Z,82.08
2018-11-23T07:29:43.824Z,81.88
2018-11-23T07:32:14.518Z,81.93
2018-11-23T07:33:11.039Z,80.51
2018-11-23T07:34:08.741Z,80.22
2018-11-23T07:35:07.425Z,78.93
2018-11-23T07:36:02.342Z,78.17
2018-11-23T07:36:56.388Z,77.89
2018-11-23T07:37:50.810Z,76.75
2018-11-23T07:38:46.219Z,74.75
2018-11-23T07:39:41.365Z,73.04
2018-11-23T07:40:39.163Z,74.37
2018-11-23T07:41:36.021Z,75.99
2018-11-23T07:42:31.263Z,76.21
2018-11-23T07:43:29.021Z,74.79
2018-11-23T07:44:24.395Z,74.12
2018-11-23T07:45:18.314Z,73.18
2018-11-23T07:46:14.100Z,73.65
2018-11-23T07:47:10.187Z,72.51
2018-11-23T07:49:33.928Z,71.88
2018-11-23T07:50:14.919Z,72.26
2018-11-23T07:50:55.785Z,71.41
2018-11-23T07:51:39.119Z,70.83
2018-11-23T07:52:16.114Z,70.42
2018-11-23T07:52:56.738Z,69.85
2018-11-23T07:53:40.446Z,70.99
2018-11-23T07:54:21.108Z,71.56
2018-11-23T07:55:01.962Z,72.41
2018-11-23T07:55:43.451Z,72.32
2018-11-23T07:56:24.614Z,71.75
2018-11-23T07:57:04.298Z,71.46
2018-11-23T07:57:44.758Z,71.46
2018-11-23T07:58:25.304Z,71.37
2018-11-23T07:59:05.755Z,72.13
2018-11-23T07:59:46.768Z,72.41
2018-11-23T08:00:27.937Z,72.22
2018-11-23T08:01:08.035Z,73.08
2018-11-23T08:01:48.895Z,73.36
2018-11-23T08:02:29.665Z,72.79
2018-11-23T08:03:10.399Z,72.51
2018-11-23T08:03:51.076Z,71.66
2018-11-23T08:04:31.682Z,71.66
2018-11-23T08:05:12.094Z,72.13
2018-11-23T08:05:52.545Z,72.19
2018-11-23T08:06:33.031Z,72.75
2018-11-23T08:07:15.020Z,74.27
2018-11-23T08:07:54.750Z,74.94
2018-11-23T08:08:35.198Z,75.89
2018-11-23T08:09:15.698Z,76.08
2018-11-23T08:09:56.181Z,76.23
2018-11-23T08:10:36.656Z,76.52
2018-11-23T08:11:17.960Z,76.23
2018-11-23T08:11:58.314Z,76.23
2018-11-23T08:12:38.961Z,77.66
2018-11-23T08:13:19.461Z,77.18
2018-11-23T08:14:00.226Z,76.08
2018-11-23T08:14:41.710Z,75.99
2018-11-23T08:15:23.464Z,77.22
2018-11-23T08:16:03.500Z,77.03
2018-11-23T08:16:44.139Z,76.37
2018-11-23T08:17:25.941Z,74.79
2018-11-23T08:18:06.297Z,73.61
2018-11-23T08:18:48.126Z,72.95
2018-11-23T08:19:28.526Z,72.75
2018-11-23T08:20:08.964Z,74.66
2018-11-23T08:20:51.975Z,74.66
2018-11-23T08:21:30.971Z,74.75
2018-11-23T08:22:11.526Z,73.9
2018-11-23T08:22:52.998Z,74.85
2018-11-23T08:23:33.705Z,74.98
2018-11-23T08:24:15.209Z,75.26
2018-11-23T08:24:54.424Z,74.79
2018-11-23T08:25:35.352Z,73.74
2018-11-23T08:26:16.366Z,72.55
2018-11-23T08:26:57.428Z,72.35
2018-11-23T08:27:38.304Z,70.79
2018-11-23T08:28:19.125Z,72.22
2018-11-23T08:28:59.601Z,73.02
2018-11-23T08:29:40.197Z,71.41
2018-11-23T08:30:20.653Z,71.31
2018-11-23T08:31:01.331Z,70.61
2018-11-23T08:31:41.805Z,71.08
2018-11-23T08:32:23.451Z,71.84
2018-11-23T08:33:04.162Z,71.56
2018-11-23T08:33:44.091Z,71.66
2018-11-23T08:34:24.773Z,72.6
2018-11-23T08:35:05.963Z,72.32
2018-11-23T08:35:46.944Z,73.18
2018-11-23T08:36:27.179Z,73.08
2018-11-23T08:37:08.450Z,73.74
2018-11-23T08:37:48.511Z,74.18
2018-11-23T08:38:29.083Z,73.71
2018-11-23T08:39:10.673Z,74.08
2018-11-23T08:39:51.459Z,74.94
2018-11-23T08:40:31.784Z,75.42
2018-11-23T08:41:11.957Z,75.55
2018-11-23T08:41:52.813Z,75.45
2018-11-23T08:42:33.681Z,74.35
2018-11-23T08:43:14.186Z,72.58
2018-11-23T08:43:54.997Z,70.87
2018-11-23T08:44:35.737Z,70.39
2018-11-23T08:45:16.244Z,68.49
2018-11-23T08:45:56.780Z,67.86
2018-11-23T08:46:37.932Z,67.76
2018-11-23T08:47:17.937Z,68.62
2018-11-23T08:47:59.519Z,67.86
2018-11-23T08:48:40.495Z,67.76
2018-11-23T08:49:21.063Z,67.03
2018-11-23T08:50:02.953Z,66.85
2018-11-23T08:50:43.155Z,64.47
2018-11-23T08:51:23.092Z,64.56
2018-11-23T08:52:03.928Z,64.59
2018-11-23T08:52:44.677Z,64.87
2018-11-23T08:53:27.910Z,63.73
2018-11-23T08:54:05.788Z,62.72
2018-11-23T08:54:46.496Z,63.2
2018-11-23T08:55:26.889Z,61.1
2018-11-23T08:56:07.473Z,60.14
2018-11-23T08:56:48.150Z,60.4
2018-11-23T08:57:29.469Z,61.86
2018-11-23T08:58:09.565Z,61.25
2018-11-23T08:58:49.994Z,62.81
2018-11-23T08:59:30.439Z,61.96
2018-11-23T09:00:11.078Z,60.62
2018-11-23T09:00:51.366Z,60.24
2018-11-23T09:01:31.907Z,59.95
2018-11-23T09:02:12.517Z,60.27
2018-11-23T09:02:52.946Z,59.51
2018-11-23T09:03:33.439Z,59.41
2018-11-23T09:04:14.956Z,59.99
2018-11-23T09:04:54.916Z,59.51
2018-11-23T09:05:35.522Z,58.84
2018-11-23T09:06:16.218Z,57.41
2018-11-23T09:06:56.810Z,57.98
2018-11-23T09:07:38.084Z,58.46
2018-11-23T09:08:18.808Z,59.12
2018-11-23T09:08:58.923Z,58.91
2018-11-23T09:09:40.233Z,59.57
2018-11-23T09:10:20.740Z,60.05
2018-11-23T09:11:02.447Z,61.22
2018-11-23T09:11:42.395Z,60.84
2018-11-23T09:12:22.824Z,60.27
2018-11-23T09:13:05.104Z,60.3
2018-11-23T09:13:45.960Z,58.77
2018-11-23T09:14:27.058Z,56.89
2018-11-23T09:15:07.235Z,57.56
2018-11-23T09:15:47.737Z,57.46
2018-11-23T09:16:28.564Z,56.54
2018-11-23T09:17:09.154Z,55.11
2018-11-23T09:17:49.640Z,54.63
2018-11-23T09:18:30.470Z,53.99
2018-11-23T09:19:11.718Z,53.7
2018-11-23T09:19:52.385Z,52.94
2018-11-23T09:20:32.888Z,51.89
2018-11-23T09:21:13.644Z,53.13
2018-11-23T09:21:54.438Z,53.29
2018-11-23T09:22:35.343Z,54.44
2018-11-23T09:23:16.948Z,54.25
2018-11-23T09:23:57.604Z,54.06
2018-11-23T09:24:37.735Z,54.82
2018-11-23T09:25:18.471Z,54.72
2018-11-23T09:25:59.200Z,53.89
2018-11-23T09:26:40.089Z,53.32
2018-11-23T09:27:21.657Z,53.41
2018-11-23T09:28:02.519Z,52.29
2018-11-23T09:28:43.516Z,51.15
2018-11-23T09:29:23.909Z,50.76
2018-11-23T09:30:04.720Z,50.48
2018-11-23T09:30:45.205Z,50.38
2018-11-23T09:31:25.874Z,50.95
2018-11-23T09:32:06.821Z,51.07
2018-11-23T09:32:47.605Z,50.7
2018-11-23T09:33:28.231Z,50.21
2018-11-23T09:34:09.463Z,49.07
2018-11-23T09:34:50.544Z,49.07
2018-11-23T09:35:32.025Z,50
2018-11-23T09:36:11.861Z,50.57
2018-11-23T09:36:52.461Z,51.15
2018-11-23T09:37:33.257Z,51.62
2018-11-23T09:38:15.045Z,51.15
2018-11-23T09:38:55.704Z,51.89
2018-11-23T09:39:36.918Z,52.46
2018-11-23T09:40:19.020Z,52.36
2018-11-23T09:40:59.029Z,52.34
2018-11-23T09:41:39.393Z,52.34
2018-11-23T09:42:20.176Z,52.43
2018-11-23T09:43:01.324Z,52.91
2018-11-23T09:43:44.027Z,53.55
2018-11-23T09:44:24.925Z,54.32
2018-11-23T09:45:05.323Z,54.22
2018-11-23T09:45:46.053Z,54.77
2018-11-23T09:46:26.591Z,55.05
2018-11-23T09:47:10.063Z,56.1
2018-11-23T09:47:47.747Z,55.62
2018-11-23T09:48:28.339Z,56.48
2018-11-23T09:49:08.997Z,56.55
2018-11-23T09:49:49.998Z,57.41
2018-11-23T09:50:31.475Z,57.6
2018-11-23T09:51:11.732Z,57.7
2018-11-23T09:51:52.979Z,57.41
2018-11-23T09:52:33.559Z,59.12
2018-11-23T09:53:15.014Z,59.79
2018-11-23T09:53:54.814Z,60.46
2018-11-23T09:54:35.648Z,59.79
2018-11-23T09:55:18.437Z,59.51
2018-11-23T09:55:57.716Z,60.17
2018-11-23T09:56:38.088Z,60.17
2018-11-23T09:57:18.645Z,60.65
2018-11-23T09:57:59.134Z,60.55
2018-11-23T09:58:43.514Z,59.99
2018-11-23T09:59:20.032Z,60.17
2018-11-23T10:00:00.554Z,60.08
2018-11-23T10:00:40.951Z,60.17
2018-11-23T10:01:21.332Z,60.17
2018-11-23T10:02:02.524Z,59.31
2018-11-23T10:02:42.912Z,59.41
2018-11-23T10:03:24.705Z,59.7
2018-11-23T10:04:05.144Z,60.17
2018-11-23T10:04:45.419Z,59.79
2018-11-23T10:05:26.978Z,59.79
2018-11-23T10:06:07.454Z,60.46
2018-11-23T10:06:48.965Z,60.65
2018-11-23T10:07:29.156Z,60.36
2018-11-23T10:08:09.645Z,60.55
2018-11-23T10:08:50.217Z,59.99
2018-11-23T10:09:30.777Z,59.22
2018-11-23T10:10:12.060Z,58.84
2018-11-23T10:10:52.324Z,59.22
2018-11-23T10:11:32.974Z,59.41
2018-11-23T10:12:14.472Z,59.12
2018-11-23T10:12:55.103Z,59.89
2018-11-23T10:13:35.968Z,59.41
2018-11-23T10:14:17.083Z,59.38
2018-11-23T10:14:56.845Z,59.76
2018-11-23T10:15:37.310Z,60.33
2018-11-23T10:16:17.697Z,61.19
2018-11-23T10:16:59.090Z,62.21
2018-11-23T10:17:39.655Z,62.21
2018-11-23T10:18:21.031Z,62.97
2018-11-23T10:19:02.066Z,62.88
2018-11-23T10:19:43.080Z,63.73
2018-11-23T10:20:23.805Z,63.54
2018-11-23T10:21:04.698Z,63.13
2018-11-23T10:21:45.191Z,63.7